sensor_id;sensor_type;location;lat;lon;timestamp;P1;durP1;ratioP1;P2;durP2;ratioP2
22648;SDS011;11491;41.942;24.220;2023-03-01T00:00:07;72.15;;;37.58;;
22648;SDS011;11491;41.942;24.220;2023-03-01T00:02:35;68.13;;;34.83;;
22648;SDS011;11491;41.942;24.220;2023-03-01T00:05:02;64.95;;;35.75;;
22648;SDS011;11491;41.942;24.220;2023-03-01T00:07:31;59.85;;;33.38;;
22648;SDS011;11491;41.942;24.220;2023-03-01T00:09:58;54.25;;;28.83;;
22648;SDS011;11491;41.942;24.220;2023-03-01T00:12:26;48.67;;;27.27;;
22648;SDS011;11491;41.942;24.220;2023-03-01T00:14:52;50.33;;;27.92;;
22648;SDS011;11491;41.942;24.220;2023-03-01T00:17:19;46.78;;;25.73;;
22648;SDS011;11491;41.942;24.220;2023-03-01T00:19:46;43.92;;;23.77;;
22648;SDS011;11491;41.942;24.220;2023-03-01T00:22:13;41.28;;;23.13;;
22648;SDS011;11491;41.942;24.220;2023-03-01T00:24:39;44.35;;;23.45;;
22648;SDS011;11491;41.942;24.220;2023-03-01T00:27:06;30.73;;;19.30;;
22648;SDS011;11491;41.942;24.220;2023-03-01T00:29:34;34.97;;;19.33;;
22648;SDS011;11491;41.942;24.220;2023-03-01T00:32:01;33.13;;;19.85;;
22648;SDS011;11491;41.942;24.220;2023-03-01T00:34:28;36.65;;;23.33;;
22648;SDS011;11491;41.942;24.220;2023-03-01T00:36:54;39.83;;;22.92;;
22648;SDS011;11491;41.942;24.220;2023-03-01T00:39:30;42.85;;;26.25;;
22648;SDS011;11491;41.942;24.220;2023-03-01T00:41:57;41.25;;;23.55;;
22648;SDS011;11491;41.942;24.220;2023-03-01T00:44:24;39.65;;;24.02;;
22648;SDS011;11491;41.942;24.220;2023-03-01T00:46:52;40.15;;;22.67;;
22648;SDS011;11491;41.942;24.220;2023-03-01T00:49:19;38.00;;;22.13;;
22648;SDS011;11491;41.942;24.220;2023-03-01T00:51:45;35.58;;;21.23;;
22648;SDS011;11491;41.942;24.220;2023-03-01T00:54:12;39.65;;;22.77;;
22648;SDS011;11491;41.942;24.220;2023-03-01T00:56:39;39.95;;;23.17;;
22648;SDS011;11491;41.942;24.220;2023-03-01T00:59:06;33.63;;;19.73;;
22648;SDS011;11491;41.942;24.220;2023-03-01T01:01:32;40.60;;;22.98;;
22648;SDS011;11491;41.942;24.220;2023-03-01T01:04:01;41.63;;;22.08;;
22648;SDS011;11491;41.942;24.220;2023-03-01T01:06:30;42.10;;;24.67;;
22648;SDS011;11491;41.942;24.220;2023-03-01T01:08:59;45.53;;;24.73;;
22648;SDS011;11491;41.942;24.220;2023-03-01T01:11:27;42.75;;;23.02;;
22648;SDS011;11491;41.942;24.220;2023-03-01T01:13:55;39.80;;;21.88;;
22648;SDS011;11491;41.942;24.220;2023-03-01T01:16:24;48.78;;;29.02;;
22648;SDS011;11491;41.942;24.220;2023-03-01T01:18:53;49.17;;;28.30;;
22648;SDS011;11491;41.942;24.220;2023-03-01T01:21:21;44.33;;;25.90;;
22648;SDS011;11491;41.942;24.220;2023-03-01T01:23:49;36.92;;;23.20;;
22648;SDS011;11491;41.942;24.220;2023-03-01T01:26:17;36.67;;;21.20;;
22648;SDS011;11491;41.942;24.220;2023-03-01T01:28:46;35.20;;;21.30;;
22648;SDS011;11491;41.942;24.220;2023-03-01T01:31:13;33.75;;;20.25;;
22648;SDS011;11491;41.942;24.220;2023-03-01T01:33:40;35.95;;;20.65;;
22648;SDS011;11491;41.942;24.220;2023-03-01T01:36:07;32.60;;;20.00;;
22648;SDS011;11491;41.942;24.220;2023-03-01T01:38:36;33.75;;;17.95;;
22648;SDS011;11491;41.942;24.220;2023-03-01T01:41:04;25.70;;;16.38;;
22648;SDS011;11491;41.942;24.220;2023-03-01T01:43:34;26.33;;;15.90;;
22648;SDS011;11491;41.942;24.220;2023-03-01T01:46:03;29.50;;;15.93;;
22648;SDS011;11491;41.942;24.220;2023-03-01T01:48:34;40.50;;;16.02;;
22648;SDS011;11491;41.942;24.220;2023-03-01T01:53:37;35.45;;;12.80;;
22648;SDS011;11491;41.942;24.220;2023-03-01T01:56:05;31.55;;;11.20;;
22648;SDS011;11491;41.942;24.220;2023-03-01T01:58:35;23.13;;;8.20;;
22648;SDS011;11491;41.942;24.220;2023-03-01T02:01:03;39.30;;;10.05;;
22648;SDS011;11491;41.942;24.220;2023-03-01T02:03:31;72.55;;;12.50;;
22648;SDS011;11491;41.942;24.220;2023-03-01T02:06:03;63.42;;;15.50;;
22648;SDS011;11491;41.942;24.220;2023-03-01T02:08:33;45.45;;;12.90;;
22648;SDS011;11491;41.942;24.220;2023-03-01T02:11:04;31.60;;;7.78;;
22648;SDS011;11491;41.942;24.220;2023-03-01T02:13:32;33.72;;;8.88;;
22648;SDS011;11491;41.942;24.220;2023-03-01T02:16:02;33.53;;;7.55;;
22648;SDS011;11491;41.942;24.220;2023-03-01T02:18:29;51.28;;;8.40;;
22648;SDS011;11491;41.942;24.220;2023-03-01T02:21:02;19.23;;;7.13;;
22648;SDS011;11491;41.942;24.220;2023-03-01T02:23:40;22.35;;;5.32;;
22648;SDS011;11491;41.942;24.220;2023-03-01T02:26:09;30.40;;;5.85;;
22648;SDS011;11491;41.942;24.220;2023-03-01T02:28:44;24.17;;;5.22;;
22648;SDS011;11491;41.942;24.220;2023-03-01T02:31:13;42.35;;;5.95;;
22648;SDS011;11491;41.942;24.220;2023-03-01T02:34:00;44.60;;;6.32;;
22648;SDS011;11491;41.942;24.220;2023-03-01T02:36:30;37.95;;;6.57;;
22648;SDS011;11491;41.942;24.220;2023-03-01T02:39:02;41.00;;;8.77;;
22648;SDS011;11491;41.942;24.220;2023-03-01T02:41:32;49.92;;;16.50;;
22648;SDS011;11491;41.942;24.220;2023-03-01T02:44:03;39.92;;;16.52;;
22648;SDS011;11491;41.942;24.220;2023-03-01T02:46:30;51.70;;;17.20;;
22648;SDS011;11491;41.942;24.220;2023-03-01T02:48:58;49.55;;;15.88;;
22648;SDS011;11491;41.942;24.220;2023-03-01T02:51:32;46.55;;;12.85;;
22648;SDS011;11491;41.942;24.220;2023-03-01T02:54:12;62.13;;;11.15;;
22648;SDS011;11491;41.942;24.220;2023-03-01T02:56:44;63.70;;;10.38;;
22648;SDS011;11491;41.942;24.220;2023-03-01T02:59:15;46.30;;;8.95;;
22648;SDS011;11491;41.942;24.220;2023-03-01T03:01:44;61.85;;;9.50;;
22648;SDS011;11491;41.942;24.220;2023-03-01T03:04:13;47.22;;;6.78;;
22648;SDS011;11491;41.942;24.220;2023-03-01T03:06:42;55.97;;;6.55;;
22648;SDS011;11491;41.942;24.220;2023-03-01T03:09:09;68.88;;;5.38;;
22648;SDS011;11491;41.942;24.220;2023-03-01T03:11:37;81.65;;;6.53;;
22648;SDS011;11491;41.942;24.220;2023-03-01T03:14:04;92.72;;;10.15;;
22648;SDS011;11491;41.942;24.220;2023-03-01T03:16:35;93.15;;;6.75;;
22648;SDS011;11491;41.942;24.220;2023-03-01T03:19:02;68.82;;;13.27;;
22648;SDS011;11491;41.942;24.220;2023-03-01T03:21:31;59.17;;;8.25;;
22648;SDS011;11491;41.942;24.220;2023-03-01T03:23:57;106.55;;;10.05;;
22648;SDS011;11491;41.942;24.220;2023-03-01T03:26:24;99.45;;;10.73;;
22648;SDS011;11491;41.942;24.220;2023-03-01T03:28:51;98.22;;;14.05;;
22648;SDS011;11491;41.942;24.220;2023-03-01T03:31:18;76.65;;;8.38;;
22648;SDS011;11491;41.942;24.220;2023-03-01T03:33:47;82.03;;;10.30;;
22648;SDS011;11491;41.942;24.220;2023-03-01T03:36:15;121.28;;;14.32;;
22648;SDS011;11491;41.942;24.220;2023-03-01T03:38:42;216.77;;;25.45;;
22648;SDS011;11491;41.942;24.220;2023-03-01T03:41:10;71.85;;;8.90;;
22648;SDS011;11491;41.942;24.220;2023-03-01T03:43:37;64.15;;;6.40;;
22648;SDS011;11491;41.942;24.220;2023-03-01T03:46:05;83.15;;;6.78;;
22648;SDS011;11491;41.942;24.220;2023-03-01T03:48:33;85.50;;;6.78;;
22648;SDS011;11491;41.942;24.220;2023-03-01T03:51:02;51.00;;;7.40;;
22648;SDS011;11491;41.942;24.220;2023-03-01T03:53:30;66.35;;;6.68;;
22648;SDS011;11491;41.942;24.220;2023-03-01T03:55:57;70.38;;;7.50;;
22648;SDS011;11491;41.942;24.220;2023-03-01T03:58:24;61.17;;;8.52;;
22648;SDS011;11491;41.942;24.220;2023-03-01T04:00:52;69.60;;;8.18;;
22648;SDS011;11491;41.942;24.220;2023-03-01T04:03:21;61.33;;;7.30;;
22648;SDS011;11491;41.942;24.220;2023-03-01T04:05:49;38.70;;;6.30;;
22648;SDS011;11491;41.942;24.220;2023-03-01T04:08:18;37.10;;;5.78;;
22648;SDS011;11491;41.942;24.220;2023-03-01T04:10:47;61.58;;;6.85;;
22648;SDS011;11491;41.942;24.220;2023-03-01T04:13:16;77.07;;;7.38;;
22648;SDS011;11491;41.942;24.220;2023-03-01T04:15:44;70.00;;;8.13;;
22648;SDS011;11491;41.942;24.220;2023-03-01T04:18:12;81.28;;;7.32;;
22648;SDS011;11491;41.942;24.220;2023-03-01T04:20:40;50.08;;;7.97;;
22648;SDS011;11491;41.942;24.220;2023-03-01T04:23:08;50.03;;;8.50;;
22648;SDS011;11491;41.942;24.220;2023-03-01T04:25:42;95.03;;;11.10;;
22648;SDS011;11491;41.942;24.220;2023-03-01T04:30:41;26.75;;;4.65;;
22648;SDS011;11491;41.942;24.220;2023-03-01T04:33:08;31.58;;;6.20;;
22648;SDS011;11491;41.942;24.220;2023-03-01T04:35:36;42.08;;;6.60;;
22648;SDS011;11491;41.942;24.220;2023-03-01T04:38:03;42.72;;;5.28;;
22648;SDS011;11491;41.942;24.220;2023-03-01T04:40:30;19.02;;;4.63;;
22648;SDS011;11491;41.942;24.220;2023-03-01T04:42:59;18.73;;;4.40;;
22648;SDS011;11491;41.942;24.220;2023-03-01T04:45:27;21.65;;;5.65;;
22648;SDS011;11491;41.942;24.220;2023-03-01T04:47:53;14.80;;;4.35;;
22648;SDS011;11491;41.942;24.220;2023-03-01T04:50:23;12.10;;;4.53;;
22648;SDS011;11491;41.942;24.220;2023-03-01T04:52:51;16.55;;;3.55;;
22648;SDS011;11491;41.942;24.220;2023-03-01T04:55:18;18.77;;;3.45;;
22648;SDS011;11491;41.942;24.220;2023-03-01T04:57:45;17.50;;;3.30;;
22648;SDS011;11491;41.942;24.220;2023-03-01T05:00:14;19.13;;;3.58;;
22648;SDS011;11491;41.942;24.220;2023-03-01T05:02:48;13.80;;;2.58;;
22648;SDS011;11491;41.942;24.220;2023-03-01T05:05:18;8.10;;;2.58;;
22648;SDS011;11491;41.942;24.220;2023-03-01T05:07:50;18.30;;;3.05;;
22648;SDS011;11491;41.942;24.220;2023-03-01T05:10:17;20.13;;;4.38;;
22648;SDS011;11491;41.942;24.220;2023-03-01T05:12:44;37.85;;;12.23;;
22648;SDS011;11491;41.942;24.220;2023-03-01T05:15:13;21.17;;;8.90;;
22648;SDS011;11491;41.942;24.220;2023-03-01T05:17:39;34.35;;;12.93;;
22648;SDS011;11491;41.942;24.220;2023-03-01T05:20:07;22.92;;;7.95;;
22648;SDS011;11491;41.942;24.220;2023-03-01T05:22:35;57.90;;;20.45;;
22648;SDS011;11491;41.942;24.220;2023-03-01T05:25:02;48.75;;;21.77;;
22648;SDS011;11491;41.942;24.220;2023-03-01T05:27:29;34.92;;;17.75;;
22648;SDS011;11491;41.942;24.220;2023-03-01T05:29:56;24.95;;;9.98;;
22648;SDS011;11491;41.942;24.220;2023-03-01T05:32:24;16.83;;;6.97;;
22648;SDS011;11491;41.942;24.220;2023-03-01T05:34:51;41.17;;;11.65;;
22648;SDS011;11491;41.942;24.220;2023-03-01T05:37:20;24.73;;;12.50;;
22648;SDS011;11491;41.942;24.220;2023-03-01T05:39:46;44.10;;;26.05;;
22648;SDS011;11491;41.942;24.220;2023-03-01T05:42:15;31.92;;;13.77;;
22648;SDS011;11491;41.942;24.220;2023-03-01T05:44:42;38.13;;;9.27;;
22648;SDS011;11491;41.942;24.220;2023-03-01T05:47:09;37.00;;;14.52;;
22648;SDS011;11491;41.942;24.220;2023-03-01T05:49:37;26.90;;;13.75;;
22648;SDS011;11491;41.942;24.220;2023-03-01T05:52:04;22.23;;;10.45;;
22648;SDS011;11491;41.942;24.220;2023-03-01T05:54:31;32.03;;;15.20;;
22648;SDS011;11491;41.942;24.220;2023-03-01T05:56:58;42.42;;;11.45;;
22648;SDS011;11491;41.942;24.220;2023-03-01T05:59:25;19.10;;;6.25;;
22648;SDS011;11491;41.942;24.220;2023-03-01T06:01:51;18.30;;;4.45;;
22648;SDS011;11491;41.942;24.220;2023-03-01T06:04:18;45.30;;;5.22;;
22648;SDS011;11491;41.942;24.220;2023-03-01T06:06:47;16.20;;;3.92;;
22648;SDS011;11491;41.942;24.220;2023-03-01T06:09:14;32.67;;;12.80;;
22648;SDS011;11491;41.942;24.220;2023-03-01T06:11:40;41.20;;;19.42;;
22648;SDS011;11491;41.942;24.220;2023-03-01T06:14:07;21.63;;;10.52;;
22648;SDS011;11491;41.942;24.220;2023-03-01T06:16:35;28.73;;;6.05;;
22648;SDS011;11491;41.942;24.220;2023-03-01T06:19:02;26.55;;;9.73;;
22648;SDS011;11491;41.942;24.220;2023-03-01T06:21:29;61.05;;;15.52;;
22648;SDS011;11491;41.942;24.220;2023-03-01T06:23:57;28.83;;;10.02;;
22648;SDS011;11491;41.942;24.220;2023-03-01T06:26:23;29.08;;;7.75;;
22648;SDS011;11491;41.942;24.220;2023-03-01T06:28:50;29.25;;;7.25;;
22648;SDS011;11491;41.942;24.220;2023-03-01T06:31:17;18.55;;;8.00;;
22648;SDS011;11491;41.942;24.220;2023-03-01T06:33:44;47.40;;;8.77;;
22648;SDS011;11491;41.942;24.220;2023-03-01T06:36:10;30.98;;;8.32;;
22648;SDS011;11491;41.942;24.220;2023-03-01T06:38:37;34.83;;;16.73;;
22648;SDS011;11491;41.942;24.220;2023-03-01T06:41:07;50.90;;;19.45;;
22648;SDS011;11491;41.942;24.220;2023-03-01T06:43:33;35.20;;;15.32;;
22648;SDS011;11491;41.942;24.220;2023-03-01T06:46:03;25.15;;;13.63;;
22648;SDS011;11491;41.942;24.220;2023-03-01T06:48:30;49.75;;;44.03;;
22648;SDS011;11491;41.942;24.220;2023-03-01T06:50:57;33.88;;;20.67;;
22648;SDS011;11491;41.942;24.220;2023-03-01T06:53:25;30.65;;;25.42;;
22648;SDS011;11491;41.942;24.220;2023-03-01T06:55:53;20.10;;;11.07;;
22648;SDS011;11491;41.942;24.220;2023-03-01T06:58:22;31.27;;;23.05;;
22648;SDS011;11491;41.942;24.220;2023-03-01T07:00:49;20.88;;;13.35;;
22648;SDS011;11491;41.942;24.220;2023-03-01T07:03:16;20.80;;;13.93;;
22648;SDS011;11491;41.942;24.220;2023-03-01T07:05:42;16.95;;;12.15;;
22648;SDS011;11491;41.942;24.220;2023-03-01T07:08:09;11.75;;;6.50;;
22648;SDS011;11491;41.942;24.220;2023-03-01T07:10:36;16.42;;;12.65;;
22648;SDS011;11491;41.942;24.220;2023-03-01T07:13:03;18.23;;;14.30;;
22648;SDS011;11491;41.942;24.220;2023-03-01T07:15:33;21.13;;;17.65;;
22648;SDS011;11491;41.942;24.220;2023-03-01T07:17:59;11.88;;;8.45;;
22648;SDS011;11491;41.942;24.220;2023-03-01T07:20:26;11.18;;;7.35;;
22648;SDS011;11491;41.942;24.220;2023-03-01T07:22:53;12.30;;;8.43;;
22648;SDS011;11491;41.942;24.220;2023-03-01T07:25:21;16.83;;;11.80;;
22648;SDS011;11491;41.942;24.220;2023-03-01T07:27:51;8.27;;;4.25;;
22648;SDS011;11491;41.942;24.220;2023-03-01T07:30:18;6.95;;;4.88;;
22648;SDS011;11491;41.942;24.220;2023-03-01T07:32:47;5.20;;;3.50;;
22648;SDS011;11491;41.942;24.220;2023-03-01T07:35:14;10.48;;;6.20;;
22648;SDS011;11491;41.942;24.220;2023-03-01T07:37:41;14.32;;;10.27;;
22648;SDS011;11491;41.942;24.220;2023-03-01T07:40:08;9.82;;;6.13;;
22648;SDS011;11491;41.942;24.220;2023-03-01T07:42:36;8.65;;;5.70;;
22648;SDS011;11491;41.942;24.220;2023-03-01T07:45:03;11.52;;;8.43;;
22648;SDS011;11491;41.942;24.220;2023-03-01T07:47:31;5.78;;;3.88;;
22648;SDS011;11491;41.942;24.220;2023-03-01T07:50:00;7.15;;;5.30;;
22648;SDS011;11491;41.942;24.220;2023-03-01T07:52:27;8.15;;;5.88;;
22648;SDS011;11491;41.942;24.220;2023-03-01T07:54:54;17.90;;;13.90;;
22648;SDS011;11491;41.942;24.220;2023-03-01T07:57:21;22.25;;;17.65;;
22648;SDS011;11491;41.942;24.220;2023-03-01T07:59:48;10.55;;;8.25;;
22648;SDS011;11491;41.942;24.220;2023-03-01T08:02:15;17.35;;;11.85;;
22648;SDS011;11491;41.942;24.220;2023-03-01T08:04:41;10.90;;;7.40;;
22648;SDS011;11491;41.942;24.220;2023-03-01T08:07:09;8.63;;;6.85;;
22648;SDS011;11491;41.942;24.220;2023-03-01T08:09:36;10.75;;;7.53;;
22648;SDS011;11491;41.942;24.220;2023-03-01T08:12:03;9.50;;;7.18;;
22648;SDS011;11491;41.942;24.220;2023-03-01T08:14:31;7.35;;;5.43;;
22648;SDS011;11491;41.942;24.220;2023-03-01T08:16:58;8.30;;;6.60;;
22648;SDS011;11491;41.942;24.220;2023-03-01T08:19:24;12.32;;;7.32;;
22648;SDS011;11491;41.942;24.220;2023-03-01T08:21:53;17.00;;;13.43;;
22648;SDS011;11491;41.942;24.220;2023-03-01T08:24:21;13.82;;;9.60;;
22648;SDS011;11491;41.942;24.220;2023-03-01T08:26:47;21.23;;;16.80;;
22648;SDS011;11491;41.942;24.220;2023-03-01T08:29:14;17.50;;;13.90;;
22648;SDS011;11491;41.942;24.220;2023-03-01T08:31:41;16.58;;;13.32;;
22648;SDS011;11491;41.942;24.220;2023-03-01T08:34:09;13.45;;;9.15;;
22648;SDS011;11491;41.942;24.220;2023-03-01T08:36:38;11.65;;;7.28;;
22648;SDS011;11491;41.942;24.220;2023-03-01T08:39:06;9.77;;;7.07;;
22648;SDS011;11491;41.942;24.220;2023-03-01T08:41:35;24.65;;;17.02;;
22648;SDS011;11491;41.942;24.220;2023-03-01T08:44:02;7.78;;;5.22;;
22648;SDS011;11491;41.942;24.220;2023-03-01T08:46:30;14.05;;;10.23;;
22648;SDS011;11491;41.942;24.220;2023-03-01T08:48:58;13.38;;;8.48;;
22648;SDS011;11491;41.942;24.220;2023-03-01T08:51:25;11.48;;;6.95;;
22648;SDS011;11491;41.942;24.220;2023-03-01T08:53:54;11.18;;;7.78;;
22648;SDS011;11491;41.942;24.220;2023-03-01T08:56:21;11.32;;;8.43;;
22648;SDS011;11491;41.942;24.220;2023-03-01T08:58:49;12.23;;;8.95;;
22648;SDS011;11491;41.942;24.220;2023-03-01T09:01:17;16.73;;;11.13;;
22648;SDS011;11491;41.942;24.220;2023-03-01T09:03:45;19.60;;;15.10;;
22648;SDS011;11491;41.942;24.220;2023-03-01T09:06:12;25.65;;;16.80;;
22648;SDS011;11491;41.942;24.220;2023-03-01T09:08:41;31.92;;;19.20;;
22648;SDS011;11491;41.942;24.220;2023-03-01T09:11:09;19.83;;;14.95;;
22648;SDS011;11491;41.942;24.220;2023-03-01T09:13:37;18.45;;;12.98;;
22648;SDS011;11491;41.942;24.220;2023-03-01T09:16:06;20.45;;;15.82;;
22648;SDS011;11491;41.942;24.220;2023-03-01T09:18:34;17.63;;;12.32;;
22648;SDS011;11491;41.942;24.220;2023-03-01T09:21:02;22.92;;;16.10;;
22648;SDS011;11491;41.942;24.220;2023-03-01T09:23:32;20.85;;;13.43;;
22648;SDS011;11491;41.942;24.220;2023-03-01T09:26:01;17.15;;;12.45;;
22648;SDS011;11491;41.942;24.220;2023-03-01T09:28:28;22.30;;;15.02;;
22648;SDS011;11491;41.942;24.220;2023-03-01T09:30:57;23.75;;;15.20;;
22648;SDS011;11491;41.942;24.220;2023-03-01T09:33:25;20.27;;;13.20;;
22648;SDS011;11491;41.942;24.220;2023-03-01T09:35:55;21.45;;;14.98;;
22648;SDS011;11491;41.942;24.220;2023-03-01T09:38:23;14.80;;;9.63;;
22648;SDS011;11491;41.942;24.220;2023-03-01T09:40:49;28.02;;;21.40;;
22648;SDS011;11491;41.942;24.220;2023-03-01T09:43:18;21.13;;;16.25;;
22648;SDS011;11491;41.942;24.220;2023-03-01T09:45:52;34.20;;;19.20;;
22648;SDS011;11491;41.942;24.220;2023-03-01T09:48:21;46.03;;;24.58;;
22648;SDS011;11491;41.942;24.220;2023-03-01T09:50:51;74.97;;;26.45;;
22648;SDS011;11491;41.942;24.220;2023-03-01T09:53:19;51.17;;;24.38;;
22648;SDS011;11491;41.942;24.220;2023-03-01T09:55:48;21.63;;;13.07;;
22648;SDS011;11491;41.942;24.220;2023-03-01T09:58:37;12.00;;;8.77;;
22648;SDS011;11491;41.942;24.220;2023-03-01T10:01:23;18.35;;;12.57;;
22648;SDS011;11491;41.942;24.220;2023-03-01T10:04:00;14.93;;;11.27;;
22648;SDS011;11491;41.942;24.220;2023-03-01T10:06:51;13.95;;;10.02;;
22648;SDS011;11491;41.942;24.220;2023-03-01T10:09:24;10.88;;;7.30;;
22648;SDS011;11491;41.942;24.220;2023-03-01T10:11:52;15.93;;;10.38;;
22648;SDS011;11491;41.942;24.220;2023-03-01T10:14:26;19.00;;;13.27;;
22648;SDS011;11491;41.942;24.220;2023-03-01T10:17:00;15.32;;;8.18;;
22648;SDS011;11491;41.942;24.220;2023-03-01T10:19:31;12.82;;;7.15;;
22648;SDS011;11491;41.942;24.220;2023-03-01T10:22:02;11.80;;;7.35;;
22648;SDS011;11491;41.942;24.220;2023-03-01T10:24:35;11.80;;;6.78;;
22648;SDS011;11491;41.942;24.220;2023-03-01T10:27:04;48.15;;;26.83;;
22648;SDS011;11491;41.942;24.220;2023-03-01T10:29:39;22.73;;;11.73;;
22648;SDS011;11491;41.942;24.220;2023-03-01T10:32:14;31.63;;;18.50;;
22648;SDS011;11491;41.942;24.220;2023-03-01T10:34:42;27.08;;;17.80;;
22648;SDS011;11491;41.942;24.220;2023-03-01T10:37:11;9.35;;;6.47;;
22648;SDS011;11491;41.942;24.220;2023-03-01T10:39:54;18.35;;;12.40;;
22648;SDS011;11491;41.942;24.220;2023-03-01T10:42:25;17.00;;;12.95;;
22648;SDS011;11491;41.942;24.220;2023-03-01T10:44:53;18.17;;;15.27;;
22648;SDS011;11491;41.942;24.220;2023-03-01T10:47:21;15.55;;;11.63;;
22648;SDS011;11491;41.942;24.220;2023-03-01T10:49:51;18.10;;;13.88;;
22648;SDS011;11491;41.942;24.220;2023-03-01T10:52:21;17.05;;;12.68;;
22648;SDS011;11491;41.942;24.220;2023-03-01T10:54:54;18.35;;;13.05;;
22648;SDS011;11491;41.942;24.220;2023-03-01T10:57:30;13.10;;;8.13;;
22648;SDS011;11491;41.942;24.220;2023-03-01T11:00:09;21.02;;;13.98;;
22648;SDS011;11491;41.942;24.220;2023-03-01T11:02:47;21.15;;;14.30;;
22648;SDS011;11491;41.942;24.220;2023-03-01T11:05:18;39.13;;;27.80;;
22648;SDS011;11491;41.942;24.220;2023-03-01T11:07:50;31.65;;;23.98;;
22648;SDS011;11491;41.942;24.220;2023-03-01T11:10:19;18.45;;;11.52;;
22648;SDS011;11491;41.942;24.220;2023-03-01T11:12:48;29.83;;;22.25;;
22648;SDS011;11491;41.942;24.220;2023-03-01T11:15:24;33.67;;;24.45;;
22648;SDS011;11491;41.942;24.220;2023-03-01T11:17:53;33.70;;;21.75;;
22648;SDS011;11491;41.942;24.220;2023-03-01T11:20:25;30.23;;;20.20;;
22648;SDS011;11491;41.942;24.220;2023-03-01T11:22:58;28.38;;;20.23;;
22648;SDS011;11491;41.942;24.220;2023-03-01T11:25:30;23.13;;;13.60;;
22648;SDS011;11491;41.942;24.220;2023-03-01T11:28:01;40.75;;;23.08;;
22648;SDS011;11491;41.942;24.220;2023-03-01T11:30:32;47.25;;;30.08;;
22648;SDS011;11491;41.942;24.220;2023-03-01T11:33:10;35.33;;;22.60;;
22648;SDS011;11491;41.942;24.220;2023-03-01T11:35:45;22.27;;;13.02;;
22648;SDS011;11491;41.942;24.220;2023-03-01T11:38:19;33.90;;;20.60;;
22648;SDS011;11491;41.942;24.220;2023-03-01T11:40:49;32.10;;;24.98;;
22648;SDS011;11491;41.942;24.220;2023-03-01T11:43:26;21.20;;;15.30;;
22648;SDS011;11491;41.942;24.220;2023-03-01T11:46:18;28.00;;;17.40;;
22648;SDS011;11491;41.942;24.220;2023-03-01T11:49:17;16.85;;;11.93;;
22648;SDS011;11491;41.942;24.220;2023-03-01T11:52:03;22.40;;;13.68;;
22648;SDS011;11491;41.942;24.220;2023-03-01T11:54:44;19.13;;;12.15;;
22648;SDS011;11491;41.942;24.220;2023-03-01T11:57:22;30.98;;;16.38;;
22648;SDS011;11491;41.942;24.220;2023-03-01T12:00:07;39.55;;;24.80;;
22648;SDS011;11491;41.942;24.220;2023-03-01T12:03:00;36.90;;;21.90;;
22648;SDS011;11491;41.942;24.220;2023-03-01T12:05:56;38.05;;;23.58;;
22648;SDS011;11491;41.942;24.220;2023-03-01T12:08:55;40.47;;;30.45;;
22648;SDS011;11491;41.942;24.220;2023-03-01T12:11:36;27.45;;;19.08;;
22648;SDS011;11491;41.942;24.220;2023-03-01T12:14:23;20.98;;;14.68;;
22648;SDS011;11491;41.942;24.220;2023-03-01T12:17:15;49.38;;;31.17;;
22648;SDS011;11491;41.942;24.220;2023-03-01T12:19:58;22.30;;;15.82;;
22648;SDS011;11491;41.942;24.220;2023-03-01T12:22:42;30.00;;;20.98;;
22648;SDS011;11491;41.942;24.220;2023-03-01T12:25:25;19.60;;;12.15;;
22648;SDS011;11491;41.942;24.220;2023-03-01T12:28:02;24.45;;;16.52;;
22648;SDS011;11491;41.942;24.220;2023-03-01T12:31:02;30.52;;;23.70;;
22648;SDS011;11491;41.942;24.220;2023-03-01T12:33:45;34.55;;;23.83;;
22648;SDS011;11491;41.942;24.220;2023-03-01T12:36:25;28.65;;;20.50;;
22648;SDS011;11491;41.942;24.220;2023-03-01T12:39:11;16.45;;;11.50;;
22648;SDS011;11491;41.942;24.220;2023-03-01T12:41:56;19.90;;;12.20;;
22648;SDS011;11491;41.942;24.220;2023-03-01T12:47:42;15.23;;;10.85;;
22648;SDS011;11491;41.942;24.220;2023-03-01T12:50:23;18.80;;;12.60;;
22648;SDS011;11491;41.942;24.220;2023-03-01T12:52:52;12.93;;;8.52;;
22648;SDS011;11491;41.942;24.220;2023-03-01T12:55:26;27.75;;;13.77;;
22648;SDS011;11491;41.942;24.220;2023-03-01T12:57:58;50.30;;;22.63;;
22648;SDS011;11491;41.942;24.220;2023-03-01T13:00:31;49.25;;;32.25;;
22648;SDS011;11491;41.942;24.220;2023-03-01T13:03:16;27.38;;;19.00;;
22648;SDS011;11491;41.942;24.220;2023-03-01T13:05:56;18.83;;;12.70;;
22648;SDS011;11491;41.942;24.220;2023-03-01T13:08:35;34.15;;;22.92;;
22648;SDS011;11491;41.942;24.220;2023-03-01T13:11:06;45.90;;;32.05;;
22648;SDS011;11491;41.942;24.220;2023-03-01T13:13:41;37.53;;;27.58;;
22648;SDS011;11491;41.942;24.220;2023-03-01T13:16:21;32.38;;;25.25;;
22648;SDS011;11491;41.942;24.220;2023-03-01T13:19:10;18.90;;;13.48;;
22648;SDS011;11491;41.942;24.220;2023-03-01T13:21:40;22.40;;;16.00;;
22648;SDS011;11491;41.942;24.220;2023-03-01T13:24:26;21.83;;;14.65;;
22648;SDS011;11491;41.942;24.220;2023-03-01T13:29:54;26.92;;;17.65;;
22648;SDS011;11491;41.942;24.220;2023-03-01T13:32:25;38.55;;;26.55;;
22648;SDS011;11491;41.942;24.220;2023-03-01T13:34:58;68.10;;;38.80;;
22648;SDS011;11491;41.942;24.220;2023-03-01T13:37:29;30.33;;;18.57;;
22648;SDS011;11491;41.942;24.220;2023-03-01T13:40:04;31.52;;;18.70;;
22648;SDS011;11491;41.942;24.220;2023-03-01T13:42:48;211.43;;;104.60;;
22648;SDS011;11491;41.942;24.220;2023-03-01T13:45:27;139.30;;;67.45;;
22648;SDS011;11491;41.942;24.220;2023-03-01T13:48:03;265.88;;;129.63;;
22648;SDS011;11491;41.942;24.220;2023-03-01T13:50:38;48.20;;;25.85;;
22648;SDS011;11491;41.942;24.220;2023-03-01T13:53:14;34.10;;;20.45;;
22648;SDS011;11491;41.942;24.220;2023-03-01T13:55:44;28.27;;;18.98;;
22648;SDS011;11491;41.942;24.220;2023-03-01T13:58:15;31.55;;;21.67;;
22648;SDS011;11491;41.942;24.220;2023-03-01T14:00:47;38.05;;;28.42;;
22648;SDS011;11491;41.942;24.220;2023-03-01T14:03:15;27.50;;;20.83;;
22648;SDS011;11491;41.942;24.220;2023-03-01T14:05:56;20.83;;;14.15;;
22648;SDS011;11491;41.942;24.220;2023-03-01T14:08:26;27.70;;;18.17;;
22648;SDS011;11491;41.942;24.220;2023-03-01T14:10:58;34.03;;;22.52;;
22648;SDS011;11491;41.942;24.220;2023-03-01T14:13:45;30.02;;;21.10;;
22648;SDS011;11491;41.942;24.220;2023-03-01T14:16:24;31.00;;;18.83;;
22648;SDS011;11491;41.942;24.220;2023-03-01T14:19:05;21.90;;;14.27;;
22648;SDS011;11491;41.942;24.220;2023-03-01T14:21:42;26.67;;;17.00;;
22648;SDS011;11491;41.942;24.220;2023-03-01T14:24:15;41.50;;;18.98;;
22648;SDS011;11491;41.942;24.220;2023-03-01T14:26:44;36.50;;;21.00;;
22648;SDS011;11491;41.942;24.220;2023-03-01T14:29:24;29.45;;;17.27;;
22648;SDS011;11491;41.942;24.220;2023-03-01T14:31:53;38.10;;;18.63;;
22648;SDS011;11491;41.942;24.220;2023-03-01T14:34:20;57.40;;;24.67;;
22648;SDS011;11491;41.942;24.220;2023-03-01T14:36:49;39.08;;;22.20;;
22648;SDS011;11491;41.942;24.220;2023-03-01T14:39:17;39.05;;;22.27;;
22648;SDS011;11491;41.942;24.220;2023-03-01T14:41:46;63.58;;;23.40;;
22648;SDS011;11491;41.942;24.220;2023-03-01T14:44:14;59.28;;;25.52;;